Terminal Aerodrome Forecast
Issued by NWS

Home | Current Version | Previous Version | Text Only | Print | Product List | Glossary On
Versions: 1 2 3 4 5 6 7 8 9 10 11 12 13 14 15 16
000
FTUS43 KEAX 242300
TAFMKC
TAF
KMKC 242322Z 2500/2524 25012KT P6SM BKN080
     FM250800 30012KT P6SM OVC040
     FM251300 33015G26KT P6SM VCSH OVC018
     FM251800 35014G24KT P6SM BKN035=

USA.gov is the U.S. government's official web portal to all federal, state and local government web resources and services.